sensor_id;sensor_type;location;lat;lon;timestamp;temperature;humidity
53254;DHT22;75200;53.048;7.552;2024-03-02T00:00:14;5.80;99.90
53254;DHT22;75200;53.048;7.552;2024-03-02T00:07:44;5.90;99.90
53254;DHT22;75200;53.048;7.552;2024-03-02T00:10:11;6.00;99.90
53254;DHT22;75200;53.048;7.552;2024-03-02T00:12:40;6.00;99.90
53254;DHT22;75200;53.048;7.552;2024-03-02T00:17:43;5.90;99.90
53254;DHT22;75200;53.048;7.552;2024-03-02T00:20:09;5.90;99.90
53254;DHT22;75200;53.048;7.552;2024-03-02T00:22:36;5.90;99.90
53254;DHT22;75200;53.048;7.552;2024-03-02T00:25:03;5.70;99.90
53254;DHT22;75200;53.048;7.552;2024-03-02T00:27:29;5.80;99.90
53254;DHT22;75200;53.048;7.552;2024-03-02T00:32:22;5.60;99.90
53254;DHT22;75200;53.048;7.552;2024-03-02T00:34:48;5.70;99.90
53254;DHT22;75200;53.048;7.552;2024-03-02T00:44:33;5.60;99.90
53254;DHT22;75200;53.048;7.552;2024-03-02T00:49:27;5.70;99.90
53254;DHT22;75200;53.048;7.552;2024-03-02T00:54:25;5.80;99.90
53254;DHT22;75200;53.048;7.552;2024-03-02T00:59:21;5.50;99.90
53254;DHT22;75200;53.048;7.552;2024-03-02T01:01:48;5.70;99.90
53254;DHT22;75200;53.048;7.552;2024-03-02T01:04:14;5.70;99.90
53254;DHT22;75200;53.048;7.552;2024-03-02T01:06:42;5.80;99.90
53254;DHT22;75200;53.048;7.552;2024-03-02T01:09:07;5.90;99.90
53254;DHT22;75200;53.048;7.552;2024-03-02T01:11:33;5.90;99.90
53254;DHT22;75200;53.048;7.552;2024-03-02T01:16:25;5.80;99.90
53254;DHT22;75200;53.048;7.552;2024-03-02T01:18:51;5.80;99.90
53254;DHT22;75200;53.048;7.552;2024-03-02T01:23:43;5.70;99.90
53254;DHT22;75200;53.048;7.552;2024-03-02T01:28:35;5.50;99.90
53254;DHT22;75200;53.048;7.552;2024-03-02T01:31:01;5.40;99.90
53254;DHT22;75200;53.048;7.552;2024-03-02T01:33:27;5.50;99.90
53254;DHT22;75200;53.048;7.552;2024-03-02T01:45:38;5.30;99.90
53254;DHT22;75200;53.048;7.552;2024-03-02T01:48:07;5.30;99.90
53254;DHT22;75200;53.048;7.552;2024-03-02T01:50:34;5.40;99.90
53254;DHT22;75200;53.048;7.552;2024-03-02T01:53:00;5.20;99.90
53254;DHT22;75200;53.048;7.552;2024-03-02T01:55:28;5.40;99.90
53254;DHT22;75200;53.048;7.552;2024-03-02T01:57:55;5.30;99.90
53254;DHT22;75200;53.048;7.552;2024-03-02T02:00:22;5.30;99.90
53254;DHT22;75200;53.048;7.552;2024-03-02T02:02:50;5.30;99.90
53254;DHT22;75200;53.048;7.552;2024-03-02T02:05:16;5.30;99.90
53254;DHT22;75200;53.048;7.552;2024-03-02T02:07:42;5.50;99.90
53254;DHT22;75200;53.048;7.552;2024-03-02T02:12:35;5.60;99.90
53254;DHT22;75200;53.048;7.552;2024-03-02T02:17:28;5.70;99.90
53254;DHT22;75200;53.048;7.552;2024-03-02T02:24:46;6.00;99.90
53254;DHT22;75200;53.048;7.552;2024-03-02T02:32:07;5.90;99.90
53254;DHT22;75200;53.048;7.552;2024-03-02T02:34:33;5.90;99.90
53254;DHT22;75200;53.048;7.552;2024-03-02T02:41:51;6.10;99.90
53254;DHT22;75200;53.048;7.552;2024-03-02T02:46:43;6.20;99.90
53254;DHT22;75200;53.048;7.552;2024-03-02T02:49:09;6.30;99.90
53254;DHT22;75200;53.048;7.552;2024-03-02T02:54:01;6.20;99.90
53254;DHT22;75200;53.048;7.552;2024-03-02T03:03:45;6.10;99.90
53254;DHT22;75200;53.048;7.552;2024-03-02T03:06:11;6.10;99.90
53254;DHT22;75200;53.048;7.552;2024-03-02T03:08:37;6.00;99.90
53254;DHT22;75200;53.048;7.552;2024-03-02T03:11:04;5.80;99.90
53254;DHT22;75200;53.048;7.552;2024-03-02T03:13:34;5.80;99.90
53254;DHT22;75200;53.048;7.552;2024-03-02T03:15:59;5.80;99.90
53254;DHT22;75200;53.048;7.552;2024-03-02T03:20:51;5.80;99.90
53254;DHT22;75200;53.048;7.552;2024-03-02T03:25:43;5.80;99.90
53254;DHT22;75200;53.048;7.552;2024-03-02T03:33:05;5.70;99.90
53254;DHT22;75200;53.048;7.552;2024-03-02T03:35:34;5.70;99.90
53254;DHT22;75200;53.048;7.552;2024-03-02T03:38:00;5.60;99.90
53254;DHT22;75200;53.048;7.552;2024-03-02T03:45:18;5.70;99.90
53254;DHT22;75200;53.048;7.552;2024-03-02T03:47:44;5.50;99.90
53254;DHT22;75200;53.048;7.552;2024-03-02T03:52:38;5.60;99.90
53254;DHT22;75200;53.048;7.552;2024-03-02T03:55:04;5.50;99.90
53254;DHT22;75200;53.048;7.552;2024-03-02T03:57:30;5.50;99.90
53254;DHT22;75200;53.048;7.552;2024-03-02T04:02:22;5.50;99.90
53254;DHT22;75200;53.048;7.552;2024-03-02T04:07:16;5.40;99.90
53254;DHT22;75200;53.048;7.552;2024-03-02T04:09:42;5.40;99.90
53254;DHT22;75200;53.048;7.552;2024-03-02T04:12:07;5.30;99.90
53254;DHT22;75200;53.048;7.552;2024-03-02T04:14:33;5.20;99.90
53254;DHT22;75200;53.048;7.552;2024-03-02T04:16:59;5.30;99.90
53254;DHT22;75200;53.048;7.552;2024-03-02T04:24:18;5.10;99.90
53254;DHT22;75200;53.048;7.552;2024-03-02T04:26:43;5.10;99.90
53254;DHT22;75200;53.048;7.552;2024-03-02T04:31:35;5.30;99.90
53254;DHT22;75200;53.048;7.552;2024-03-02T04:36:27;5.20;99.90
53254;DHT22;75200;53.048;7.552;2024-03-02T04:43:45;5.30;99.90
53254;DHT22;75200;53.048;7.552;2024-03-02T04:48:37;5.10;99.90
53254;DHT22;75200;53.048;7.552;2024-03-02T04:51:03;5.10;99.90
53254;DHT22;75200;53.048;7.552;2024-03-02T04:53:29;4.90;99.90
53254;DHT22;75200;53.048;7.552;2024-03-02T04:58:43;4.90;99.90
53254;DHT22;75200;53.048;7.552;2024-03-02T05:03:36;4.80;99.90
53254;DHT22;75200;53.048;7.552;2024-03-02T05:20:38;4.70;99.90
53254;DHT22;75200;53.048;7.552;2024-03-02T05:23:04;4.60;99.90
53254;DHT22;75200;53.048;7.552;2024-03-02T05:30:23;4.50;99.90
53254;DHT22;75200;53.048;7.552;2024-03-02T05:32:51;4.50;99.90
53254;DHT22;75200;53.048;7.552;2024-03-02T05:37:43;4.60;99.90
53254;DHT22;75200;53.048;7.552;2024-03-02T05:42:36;4.60;99.90
53254;DHT22;75200;53.048;7.552;2024-03-02T05:45:02;4.50;99.90
53254;DHT22;75200;53.048;7.552;2024-03-02T05:47:28;4.50;99.90
53254;DHT22;75200;53.048;7.552;2024-03-02T05:52:20;4.60;99.90
53254;DHT22;75200;53.048;7.552;2024-03-02T05:57:14;4.50;99.90
53254;DHT22;75200;53.048;7.552;2024-03-02T06:02:13;4.50;99.90
53254;DHT22;75200;53.048;7.552;2024-03-02T06:07:06;4.40;99.90
53254;DHT22;75200;53.048;7.552;2024-03-02T06:11:58;4.20;99.90
53254;DHT22;75200;53.048;7.552;2024-03-02T06:19:16;4.30;99.90
53254;DHT22;75200;53.048;7.552;2024-03-02T06:21:41;4.20;99.90
53254;DHT22;75200;53.048;7.552;2024-03-02T06:38:46;4.20;99.90
53254;DHT22;75200;53.048;7.552;2024-03-02T06:50:57;4.40;99.90
53254;DHT22;75200;53.048;7.552;2024-03-02T06:58:16;4.30;99.90
53254;DHT22;75200;53.048;7.552;2024-03-02T07:00:42;4.30;99.90
53254;DHT22;75200;53.048;7.552;2024-03-02T07:08:00;4.60;99.90
53254;DHT22;75200;53.048;7.552;2024-03-02T07:10:27;4.60;99.90
53254;DHT22;75200;53.048;7.552;2024-03-02T07:15:19;4.50;99.90
53254;DHT22;75200;53.048;7.552;2024-03-02T07:30:06;5.30;99.90
53254;DHT22;75200;53.048;7.552;2024-03-02T07:34:58;5.70;99.90
53254;DHT22;75200;53.048;7.552;2024-03-02T07:39:50;6.40;99.90
53254;DHT22;75200;53.048;7.552;2024-03-02T07:42:16;6.60;99.90
53254;DHT22;75200;53.048;7.552;2024-03-02T07:44:44;6.70;99.90
53254;DHT22;75200;53.048;7.552;2024-03-02T07:47:11;7.00;99.90
53254;DHT22;75200;53.048;7.552;2024-03-02T07:49:36;7.10;99.90
53254;DHT22;75200;53.048;7.552;2024-03-02T07:54:28;7.30;99.90
53254;DHT22;75200;53.048;7.552;2024-03-02T07:59:20;7.70;99.90
53254;DHT22;75200;53.048;7.552;2024-03-02T08:01:49;7.90;99.40
53254;DHT22;75200;53.048;7.552;2024-03-02T08:04:16;8.00;99.70
53254;DHT22;75200;53.048;7.552;2024-03-02T08:06:41;8.20;99.40
53254;DHT22;75200;53.048;7.552;2024-03-02T08:09:07;8.10;99.30
53254;DHT22;75200;53.048;7.552;2024-03-02T08:11:36;8.30;99.30
53254;DHT22;75200;53.048;7.552;2024-03-02T08:14:03;8.50;99.00
53254;DHT22;75200;53.048;7.552;2024-03-02T08:16:29;8.40;97.90
53254;DHT22;75200;53.048;7.552;2024-03-02T08:21:24;8.50;98.30
53254;DHT22;75200;53.048;7.552;2024-03-02T08:26:16;8.70;98.70
53254;DHT22;75200;53.048;7.552;2024-03-02T08:28:42;8.70;98.40
53254;DHT22;75200;53.048;7.552;2024-03-02T08:31:08;8.70;98.00
53254;DHT22;75200;53.048;7.552;2024-03-02T08:33:34;8.60;98.30
53254;DHT22;75200;53.048;7.552;2024-03-02T08:36:00;8.70;98.50
53254;DHT22;75200;53.048;7.552;2024-03-02T08:38:27;8.70;98.10
53254;DHT22;75200;53.048;7.552;2024-03-02T08:45:45;8.80;98.40
53254;DHT22;75200;53.048;7.552;2024-03-02T08:48:11;8.80;98.30
53254;DHT22;75200;53.048;7.552;2024-03-02T08:50:36;8.90;98.10
53254;DHT22;75200;53.048;7.552;2024-03-02T08:53:04;8.90;98.30
53254;DHT22;75200;53.048;7.552;2024-03-02T08:55:30;9.10;98.40
53254;DHT22;75200;53.048;7.552;2024-03-02T09:00:23;9.20;98.00
53254;DHT22;75200;53.048;7.552;2024-03-02T09:02:48;9.20;97.70
53254;DHT22;75200;53.048;7.552;2024-03-02T09:05:15;9.20;97.40
53254;DHT22;75200;53.048;7.552;2024-03-02T09:07:41;9.20;97.50
53254;DHT22;75200;53.048;7.552;2024-03-02T09:10:07;9.30;97.40
53254;DHT22;75200;53.048;7.552;2024-03-02T09:12:34;9.40;97.60
53254;DHT22;75200;53.048;7.552;2024-03-02T09:15:03;9.70;97.80
53254;DHT22;75200;53.048;7.552;2024-03-02T09:17:29;9.90;97.30
53254;DHT22;75200;53.048;7.552;2024-03-02T09:22:21;10.00;96.10
53254;DHT22;75200;53.048;7.552;2024-03-02T09:24:48;10.10;95.70
53254;DHT22;75200;53.048;7.552;2024-03-02T09:27:14;10.20;96.40
53254;DHT22;75200;53.048;7.552;2024-03-02T09:32:08;10.50;96.30
53254;DHT22;75200;53.048;7.552;2024-03-02T09:34:34;10.50;96.40
53254;DHT22;75200;53.048;7.552;2024-03-02T09:36:59;10.50;96.50
53254;DHT22;75200;53.048;7.552;2024-03-02T09:39:25;10.40;95.30
53254;DHT22;75200;53.048;7.552;2024-03-02T09:41:51;10.50;96.40
53254;DHT22;75200;53.048;7.552;2024-03-02T09:44:17;10.50;95.20
53254;DHT22;75200;53.048;7.552;2024-03-02T09:46:43;10.70;95.90
53254;DHT22;75200;53.048;7.552;2024-03-02T09:49:10;10.80;94.90
53254;DHT22;75200;53.048;7.552;2024-03-02T09:51:40;10.80;95.00
53254;DHT22;75200;53.048;7.552;2024-03-02T09:54:07;11.00;96.10
53254;DHT22;75200;53.048;7.552;2024-03-02T09:56:33;11.10;95.90
53254;DHT22;75200;53.048;7.552;2024-03-02T09:58:59;11.30;95.20
53254;DHT22;75200;53.048;7.552;2024-03-02T10:01:25;11.50;94.80
53254;DHT22;75200;53.048;7.552;2024-03-02T10:03:51;11.20;95.40
53254;DHT22;75200;53.048;7.552;2024-03-02T10:06:25;11.50;95.10
53254;DHT22;75200;53.048;7.552;2024-03-02T10:08:51;11.40;95.10
53254;DHT22;75200;53.048;7.552;2024-03-02T10:11:34;11.40;94.70
53254;DHT22;75200;53.048;7.552;2024-03-02T10:16:36;11.50;93.80
53254;DHT22;75200;53.048;7.552;2024-03-02T10:21:44;11.60;94.00
53254;DHT22;75200;53.048;7.552;2024-03-02T10:24:10;11.70;93.20
53254;DHT22;75200;53.048;7.552;2024-03-02T10:26:35;11.90;93.50
53254;DHT22;75200;53.048;7.552;2024-03-02T10:29:01;11.90;93.60
53254;DHT22;75200;53.048;7.552;2024-03-02T10:31:28;11.80;93.40
53254;DHT22;75200;53.048;7.552;2024-03-02T10:33:55;11.90;93.90
53254;DHT22;75200;53.048;7.552;2024-03-02T10:36:21;12.20;94.00
53254;DHT22;75200;53.048;7.552;2024-03-02T10:38:47;12.30;92.70
53254;DHT22;75200;53.048;7.552;2024-03-02T10:41:18;12.50;93.30
53254;DHT22;75200;53.048;7.552;2024-03-02T10:43:44;12.40;92.20
53254;DHT22;75200;53.048;7.552;2024-03-02T10:46:11;12.50;93.00
53254;DHT22;75200;53.048;7.552;2024-03-02T10:48:40;12.50;90.90
53254;DHT22;75200;53.048;7.552;2024-03-02T10:51:06;12.40;91.70
53254;DHT22;75200;53.048;7.552;2024-03-02T10:53:32;12.40;92.20
53254;DHT22;75200;53.048;7.552;2024-03-02T10:55:58;12.40;91.40
53254;DHT22;75200;53.048;7.552;2024-03-02T10:58:32;12.50;92.30
53254;DHT22;75200;53.048;7.552;2024-03-02T11:01:03;12.50;91.60
53254;DHT22;75200;53.048;7.552;2024-03-02T11:03:35;12.60;91.70
53254;DHT22;75200;53.048;7.552;2024-03-02T11:06:02;12.70;91.20
53254;DHT22;75200;53.048;7.552;2024-03-02T11:08:34;12.80;90.40
53254;DHT22;75200;53.048;7.552;2024-03-02T11:11:07;13.00;90.40
53254;DHT22;75200;53.048;7.552;2024-03-02T11:13:38;12.90;89.70
53254;DHT22;75200;53.048;7.552;2024-03-02T11:16:12;13.00;89.60
53254;DHT22;75200;53.048;7.552;2024-03-02T11:18:42;13.00;90.10
53254;DHT22;75200;53.048;7.552;2024-03-02T11:21:08;13.00;88.70
53254;DHT22;75200;53.048;7.552;2024-03-02T11:23:34;13.10;89.60
53254;DHT22;75200;53.048;7.552;2024-03-02T11:26:22;13.20;88.50
53254;DHT22;75200;53.048;7.552;2024-03-02T11:28:49;13.10;88.70
53254;DHT22;75200;53.048;7.552;2024-03-02T11:31:15;13.20;88.60
53254;DHT22;75200;53.048;7.552;2024-03-02T11:33:41;13.20;88.00
53254;DHT22;75200;53.048;7.552;2024-03-02T11:36:08;13.30;86.50
53254;DHT22;75200;53.048;7.552;2024-03-02T11:38:34;13.30;88.30
53254;DHT22;75200;53.048;7.552;2024-03-02T11:41:02;13.30;87.40
53254;DHT22;75200;53.048;7.552;2024-03-02T11:43:28;13.40;87.20
53254;DHT22;75200;53.048;7.552;2024-03-02T11:46:01;13.30;86.10
53254;DHT22;75200;53.048;7.552;2024-03-02T11:48:30;13.30;87.60
53254;DHT22;75200;53.048;7.552;2024-03-02T11:50:58;13.30;88.20
53254;DHT22;75200;53.048;7.552;2024-03-02T11:53:27;13.40;88.00
53254;DHT22;75200;53.048;7.552;2024-03-02T11:55:55;13.60;87.50
53254;DHT22;75200;53.048;7.552;2024-03-02T11:58:21;13.70;87.60
53254;DHT22;75200;53.048;7.552;2024-03-02T12:00:58;13.70;86.40
53254;DHT22;75200;53.048;7.552;2024-03-02T12:03:25;13.80;86.40
53254;DHT22;75200;53.048;7.552;2024-03-02T12:05:52;13.90;85.30
53254;DHT22;75200;53.048;7.552;2024-03-02T12:08:18;14.10;86.70
53254;DHT22;75200;53.048;7.552;2024-03-02T12:10:59;14.20;85.00
53254;DHT22;75200;53.048;7.552;2024-03-02T12:13:26;14.40;83.80
53254;DHT22;75200;53.048;7.552;2024-03-02T12:15:55;14.20;82.80
53254;DHT22;75200;53.048;7.552;2024-03-02T12:18:24;14.20;81.70
53254;DHT22;75200;53.048;7.552;2024-03-02T12:20:51;14.20;84.20
53254;DHT22;75200;53.048;7.552;2024-03-02T12:23:18;14.20;85.20
53254;DHT22;75200;53.048;7.552;2024-03-02T12:25:45;14.40;85.50
53254;DHT22;75200;53.048;7.552;2024-03-02T12:28:11;14.80;82.90
53254;DHT22;75200;53.048;7.552;2024-03-02T12:30:37;14.80;84.90
53254;DHT22;75200;53.048;7.552;2024-03-02T12:33:03;14.90;85.90
53254;DHT22;75200;53.048;7.552;2024-03-02T12:35:29;15.00;83.00
53254;DHT22;75200;53.048;7.552;2024-03-02T12:37:55;15.00;82.40
53254;DHT22;75200;53.048;7.552;2024-03-02T12:40:22;14.80;81.40
53254;DHT22;75200;53.048;7.552;2024-03-02T12:42:49;14.90;80.50
53254;DHT22;75200;53.048;7.552;2024-03-02T12:45:15;15.10;81.10
53254;DHT22;75200;53.048;7.552;2024-03-02T12:47:42;15.20;81.80
53254;DHT22;75200;53.048;7.552;2024-03-02T12:50:09;15.20;79.60
53254;DHT22;75200;53.048;7.552;2024-03-02T12:52:35;15.20;80.60
53254;DHT22;75200;53.048;7.552;2024-03-02T12:55:03;15.40;78.50
53254;DHT22;75200;53.048;7.552;2024-03-02T12:57:32;15.40;79.00
53254;DHT22;75200;53.048;7.552;2024-03-02T12:59:59;15.50;77.40
53254;DHT22;75200;53.048;7.552;2024-03-02T13:02:28;15.50;78.70
53254;DHT22;75200;53.048;7.552;2024-03-02T13:04:55;15.40;79.10
53254;DHT22;75200;53.048;7.552;2024-03-02T13:07:23;15.30;79.30
53254;DHT22;75200;53.048;7.552;2024-03-02T13:09:52;15.60;80.90
53254;DHT22;75200;53.048;7.552;2024-03-02T13:12:21;15.50;82.10
53254;DHT22;75200;53.048;7.552;2024-03-02T13:14:53;15.40;78.70
53254;DHT22;75200;53.048;7.552;2024-03-02T13:17:20;15.50;81.90
53254;DHT22;75200;53.048;7.552;2024-03-02T13:19:53;15.80;79.70
53254;DHT22;75200;53.048;7.552;2024-03-02T13:22:19;16.10;79.80
53254;DHT22;75200;53.048;7.552;2024-03-02T13:24:45;16.20;79.90
53254;DHT22;75200;53.048;7.552;2024-03-02T13:27:11;16.50;79.20
53254;DHT22;75200;53.048;7.552;2024-03-02T13:29:37;16.60;78.10
53254;DHT22;75200;53.048;7.552;2024-03-02T13:32:03;16.90;76.80
53254;DHT22;75200;53.048;7.552;2024-03-02T13:34:29;16.80;77.40
53254;DHT22;75200;53.048;7.552;2024-03-02T13:36:55;16.50;78.70
53254;DHT22;75200;53.048;7.552;2024-03-02T13:39:21;16.70;77.80
53254;DHT22;75200;53.048;7.552;2024-03-02T13:41:46;16.70;77.90
53254;DHT22;75200;53.048;7.552;2024-03-02T13:44:20;16.80;77.30
53254;DHT22;75200;53.048;7.552;2024-03-02T13:46:47;17.60;77.80
53254;DHT22;75200;53.048;7.552;2024-03-02T13:49:14;17.60;74.70
53254;DHT22;75200;53.048;7.552;2024-03-02T13:51:40;17.90;75.90
53254;DHT22;75200;53.048;7.552;2024-03-02T13:54:06;18.10;74.30
53254;DHT22;75200;53.048;7.552;2024-03-02T13:56:31;18.30;74.70
53254;DHT22;75200;53.048;7.552;2024-03-02T13:58:58;18.70;73.30
53254;DHT22;75200;53.048;7.552;2024-03-02T14:01:24;18.70;73.40
53254;DHT22;75200;53.048;7.552;2024-03-02T14:03:50;19.00;73.80
53254;DHT22;75200;53.048;7.552;2024-03-02T14:06:17;19.90;75.00
53254;DHT22;75200;53.048;7.552;2024-03-02T14:08:42;20.10;71.30
53254;DHT22;75200;53.048;7.552;2024-03-02T14:11:10;19.50;71.30
53254;DHT22;75200;53.048;7.552;2024-03-02T14:13:41;18.90;72.60
53254;DHT22;75200;53.048;7.552;2024-03-02T14:16:07;18.80;73.60
53254;DHT22;75200;53.048;7.552;2024-03-02T14:18:34;18.80;73.60
53254;DHT22;75200;53.048;7.552;2024-03-02T14:21:00;19.00;72.80
53254;DHT22;75200;53.048;7.552;2024-03-02T14:23:25;19.00;73.00
53254;DHT22;75200;53.048;7.552;2024-03-02T14:25:51;19.20;71.90
53254;DHT22;75200;53.048;7.552;2024-03-02T14:28:17;19.30;72.10
53254;DHT22;75200;53.048;7.552;2024-03-02T14:30:44;18.60;72.00
53254;DHT22;75200;53.048;7.552;2024-03-02T14:33:10;19.00;72.90
53254;DHT22;75200;53.048;7.552;2024-03-02T14:35:36;18.90;72.40
53254;DHT22;75200;53.048;7.552;2024-03-02T14:38:02;18.20;72.50
53254;DHT22;75200;53.048;7.552;2024-03-02T14:40:28;18.10;74.20
53254;DHT22;75200;53.048;7.552;2024-03-02T14:42:55;17.90;74.60
53254;DHT22;75200;53.048;7.552;2024-03-02T14:45:20;17.30;74.20
53254;DHT22;75200;53.048;7.552;2024-03-02T14:47:46;16.90;73.70
53254;DHT22;75200;53.048;7.552;2024-03-02T14:50:12;16.50;75.40
53254;DHT22;75200;53.048;7.552;2024-03-02T14:52:38;16.10;76.50
53254;DHT22;75200;53.048;7.552;2024-03-02T14:55:04;16.00;77.80
53254;DHT22;75200;53.048;7.552;2024-03-02T14:57:33;15.60;77.90
53254;DHT22;75200;53.048;7.552;2024-03-02T14:59:58;15.70;78.40
53254;DHT22;75200;53.048;7.552;2024-03-02T15:02:24;15.70;77.50
53254;DHT22;75200;53.048;7.552;2024-03-02T15:04:50;15.60;79.50
53254;DHT22;75200;53.048;7.552;2024-03-02T15:07:16;15.60;78.30
53254;DHT22;75200;53.048;7.552;2024-03-02T15:09:42;15.60;78.80
53254;DHT22;75200;53.048;7.552;2024-03-02T15:12:07;15.40;79.80
53254;DHT22;75200;53.048;7.552;2024-03-02T15:14:39;15.30;79.40
53254;DHT22;75200;53.048;7.552;2024-03-02T15:17:13;15.20;80.20
53254;DHT22;75200;53.048;7.552;2024-03-02T15:19:45;15.00;79.70
53254;DHT22;75200;53.048;7.552;2024-03-02T15:22:11;14.90;79.60
53254;DHT22;75200;53.048;7.552;2024-03-02T15:24:37;14.80;79.50
53254;DHT22;75200;53.048;7.552;2024-03-02T15:27:04;14.80;80.80
53254;DHT22;75200;53.048;7.552;2024-03-02T15:29:32;14.80;81.50
53254;DHT22;75200;53.048;7.552;2024-03-02T15:31:58;14.80;81.60
53254;DHT22;75200;53.048;7.552;2024-03-02T15:34:24;14.60;81.40
53254;DHT22;75200;53.048;7.552;2024-03-02T15:36:50;14.60;82.30
53254;DHT22;75200;53.048;7.552;2024-03-02T15:39:16;14.80;82.60
53254;DHT22;75200;53.048;7.552;2024-03-02T15:41:44;15.00;81.90
53254;DHT22;75200;53.048;7.552;2024-03-02T15:44:10;15.50;83.00
53254;DHT22;75200;53.048;7.552;2024-03-02T15:46:36;15.60;82.30
53254;DHT22;75200;53.048;7.552;2024-03-02T15:49:02;15.70;80.00
53254;DHT22;75200;53.048;7.552;2024-03-02T15:51:29;15.70;80.80
53254;DHT22;75200;53.048;7.552;2024-03-02T15:53:54;15.30;80.60
53254;DHT22;75200;53.048;7.552;2024-03-02T15:56:20;15.10;81.40
53254;DHT22;75200;53.048;7.552;2024-03-02T15:58:46;14.90;81.20
53254;DHT22;75200;53.048;7.552;2024-03-02T16:01:12;14.90;81.80
53254;DHT22;75200;53.048;7.552;2024-03-02T16:03:38;15.20;82.00
53254;DHT22;75200;53.048;7.552;2024-03-02T16:06:05;15.60;80.80
53254;DHT22;75200;53.048;7.552;2024-03-02T16:08:31;16.10;81.00
53254;DHT22;75200;53.048;7.552;2024-03-02T16:10:57;16.10;80.30
53254;DHT22;75200;53.048;7.552;2024-03-02T16:13:23;15.90;79.90
53254;DHT22;75200;53.048;7.552;2024-03-02T16:15:49;15.80;80.50
53254;DHT22;75200;53.048;7.552;2024-03-02T16:18:15;15.70;82.30
53254;DHT22;75200;53.048;7.552;2024-03-02T16:20:40;15.70;81.50
53254;DHT22;75200;53.048;7.552;2024-03-02T16:23:07;15.50;79.80
53254;DHT22;75200;53.048;7.552;2024-03-02T16:25:33;15.20;81.90
53254;DHT22;75200;53.048;7.552;2024-03-02T16:28:03;14.60;81.50
53254;DHT22;75200;53.048;7.552;2024-03-02T16:30:30;14.30;82.70
53254;DHT22;75200;53.048;7.552;2024-03-02T16:32:55;14.00;83.50
53254;DHT22;75200;53.048;7.552;2024-03-02T16:35:21;13.80;84.00
53254;DHT22;75200;53.048;7.552;2024-03-02T16:37:47;13.60;85.10
53254;DHT22;75200;53.048;7.552;2024-03-02T16:40:13;13.40;85.70
53254;DHT22;75200;53.048;7.552;2024-03-02T16:42:39;13.10;86.70
53254;DHT22;75200;53.048;7.552;2024-03-02T16:45:05;12.80;90.10
53254;DHT22;75200;53.048;7.552;2024-03-02T16:47:31;12.60;87.90
53254;DHT22;75200;53.048;7.552;2024-03-02T16:49:57;12.60;88.30
53254;DHT22;75200;53.048;7.552;2024-03-02T16:52:27;12.30;90.40
53254;DHT22;75200;53.048;7.552;2024-03-02T16:54:55;12.20;90.60
53254;DHT22;75200;53.048;7.552;2024-03-02T16:57:21;12.00;91.20
53254;DHT22;75200;53.048;7.552;2024-03-02T16:59:48;12.00;90.40
53254;DHT22;75200;53.048;7.552;2024-03-02T17:04:40;11.60;92.20
53254;DHT22;75200;53.048;7.552;2024-03-02T17:07:06;11.40;92.50
53254;DHT22;75200;53.048;7.552;2024-03-02T17:09:32;11.20;92.80
53254;DHT22;75200;53.048;7.552;2024-03-02T17:11:58;11.10;92.70
53254;DHT22;75200;53.048;7.552;2024-03-02T17:14:24;11.00;93.20
53254;DHT22;75200;53.048;7.552;2024-03-02T17:16:50;11.00;93.20
53254;DHT22;75200;53.048;7.552;2024-03-02T17:19:16;11.00;93.20
53254;DHT22;75200;53.048;7.552;2024-03-02T17:21:43;10.70;93.40
53254;DHT22;75200;53.048;7.552;2024-03-02T17:24:08;10.60;93.80
53254;DHT22;75200;53.048;7.552;2024-03-02T17:26:34;10.50;93.70
53254;DHT22;75200;53.048;7.552;2024-03-02T17:29:00;10.50;94.10
53254;DHT22;75200;53.048;7.552;2024-03-02T17:31:26;10.20;94.20
53254;DHT22;75200;53.048;7.552;2024-03-02T17:38:44;9.90;94.70
53254;DHT22;75200;53.048;7.552;2024-03-02T17:43:39;9.80;95.20
53254;DHT22;75200;53.048;7.552;2024-03-02T17:46:06;9.70;95.30
53254;DHT22;75200;53.048;7.552;2024-03-02T17:48:32;9.80;95.70
53254;DHT22;75200;53.048;7.552;2024-03-02T17:50:58;9.70;95.70
53254;DHT22;75200;53.048;7.552;2024-03-02T17:53:24;9.40;95.50
53254;DHT22;75200;53.048;7.552;2024-03-02T18:00:42;9.30;97.00
53254;DHT22;75200;53.048;7.552;2024-03-02T18:03:08;9.20;97.20
53254;DHT22;75200;53.048;7.552;2024-03-02T18:05:34;9.30;97.50
53254;DHT22;75200;53.048;7.552;2024-03-02T18:08:02;9.10;97.10
53254;DHT22;75200;53.048;7.552;2024-03-02T18:12:55;9.20;96.70
53254;DHT22;75200;53.048;7.552;2024-03-02T18:20:13;9.20;96.90
53254;DHT22;75200;53.048;7.552;2024-03-02T18:25:06;9.30;96.80
53254;DHT22;75200;53.048;7.552;2024-03-02T18:27:32;9.00;96.80
53254;DHT22;75200;53.048;7.552;2024-03-02T18:32:24;9.00;97.80
53254;DHT22;75200;53.048;7.552;2024-03-02T18:37:16;8.90;98.30
53254;DHT22;75200;53.048;7.552;2024-03-02T18:39:48;8.90;98.30
53254;DHT22;75200;53.048;7.552;2024-03-02T18:42:14;8.90;98.10
53254;DHT22;75200;53.048;7.552;2024-03-02T18:44:41;8.90;97.70
53254;DHT22;75200;53.048;7.552;2024-03-02T18:47:07;8.80;98.40
53254;DHT22;75200;53.048;7.552;2024-03-02T18:49:33;8.90;97.40
53254;DHT22;75200;53.048;7.552;2024-03-02T18:54:25;8.80;97.70
53254;DHT22;75200;53.048;7.552;2024-03-02T18:59:17;8.60;98.60
53254;DHT22;75200;53.048;7.552;2024-03-02T19:01:43;8.70;97.80
53254;DHT22;75200;53.048;7.552;2024-03-02T19:04:09;8.80;98.60
53254;DHT22;75200;53.048;7.552;2024-03-02T19:06:35;8.80;98.30
53254;DHT22;75200;53.048;7.552;2024-03-02T19:09:01;8.70;98.50
53254;DHT22;75200;53.048;7.552;2024-03-02T19:11:26;8.80;97.60
53254;DHT22;75200;53.048;7.552;2024-03-02T19:13:52;8.90;98.20
53254;DHT22;75200;53.048;7.552;2024-03-02T19:16:18;8.70;98.10
53254;DHT22;75200;53.048;7.552;2024-03-02T19:23:36;8.80;97.80
53254;DHT22;75200;53.048;7.552;2024-03-02T19:30:57;8.50;98.00
53254;DHT22;75200;53.048;7.552;2024-03-02T19:38:17;8.60;98.60
53254;DHT22;75200;53.048;7.552;2024-03-02T19:43:10;8.60;98.50
53254;DHT22;75200;53.048;7.552;2024-03-02T19:45:35;8.50;98.30
53254;DHT22;75200;53.048;7.552;2024-03-02T19:48:01;8.50;98.60
53254;DHT22;75200;53.048;7.552;2024-03-02T19:55:21;8.60;97.60
53254;DHT22;75200;53.048;7.552;2024-03-02T19:57:57;8.50;98.00
53254;DHT22;75200;53.048;7.552;2024-03-02T20:07:46;8.50;98.20
53254;DHT22;75200;53.048;7.552;2024-03-02T20:10:23;8.60;97.20
53254;DHT22;75200;53.048;7.552;2024-03-02T20:12:49;8.40;97.70
53254;DHT22;75200;53.048;7.552;2024-03-02T20:15:23;8.60;97.30
53254;DHT22;75200;53.048;7.552;2024-03-02T20:17:57;8.40;98.20
53254;DHT22;75200;53.048;7.552;2024-03-02T20:20:27;8.50;97.40
53254;DHT22;75200;53.048;7.552;2024-03-02T20:27:47;8.30;97.90
53254;DHT22;75200;53.048;7.552;2024-03-02T20:35:05;8.40;97.80
53254;DHT22;75200;53.048;7.552;2024-03-02T20:37:31;8.30;97.30
53254;DHT22;75200;53.048;7.552;2024-03-02T20:42:24;8.40;97.10
53254;DHT22;75200;53.048;7.552;2024-03-02T20:47:19;8.40;97.40
53254;DHT22;75200;53.048;7.552;2024-03-02T20:49:48;8.30;97.10
53254;DHT22;75200;53.048;7.552;2024-03-02T20:57:06;8.10;97.60